createdAt,value
2022-08-26T00:02:00.691Z,72.37
2022-08-26T00:04:29.485Z,72.51
2022-08-26T00:06:58.178Z,71.87
2022-08-26T00:09:27.810Z,72.16
2022-08-26T00:11:56.589Z,72.67
2022-08-26T00:14:31.248Z,73.05
2022-08-26T00:17:01.580Z,72.62
2022-08-26T00:19:29.941Z,73.23
2022-08-26T00:21:58.384Z,73.33
2022-08-26T00:24:26.930Z,73.57
2022-08-26T00:26:55.222Z,73.67
2022-08-26T00:29:23.450Z,74.09
2022-08-26T00:31:52.213Z,74.03
2022-08-26T00:34:22.024Z,74.34
2022-08-26T00:36:52.037Z,74.73
2022-08-26T00:39:21.287Z,74.38
2022-08-26T00:41:50.628Z,74.72
2022-08-26T00:44:19.745Z,74.40
2022-08-26T00:46:52.268Z,74.94
2022-08-26T00:49:26.561Z,74.51
2022-08-26T00:52:00.322Z,74.56
2022-08-26T00:54:34.661Z,74.84
2022-08-26T00:57:08.741Z,74.56
2022-08-26T00:59:46.866Z,74.38
2022-08-26T01:02:20.798Z,74.19
2022-08-26T01:04:55.521Z,74.60
2022-08-26T01:07:26.219Z,74.31
2022-08-26T01:09:55.922Z,73.96
2022-08-26T01:12:26.288Z,73.57
2022-08-26T01:14:54.691Z,73.86
2022-08-26T01:17:23.089Z,73.86
2022-08-26T01:19:55.535Z,73.75
2022-08-26T01:22:28.852Z,73.46
2022-08-26T01:24:59.922Z,72.99
2022-08-26T01:27:32.969Z,73.00
2022-08-26T01:30:03.509Z,73.29
2022-08-26T01:32:34.430Z,72.79
2022-08-26T01:35:03.691Z,72.13
2022-08-26T01:37:37.271Z,71.65
2022-08-26T01:40:18.547Z,71.28
2022-08-26T01:42:49.250Z,70.71
2022-08-26T01:45:22.411Z,70.54
2022-08-26T01:47:57.183Z,70.15
2022-08-26T01:50:30.726Z,69.59
2022-08-26T01:53:02.475Z,69.05
2022-08-26T01:55:34.137Z,68.64
2022-08-26T01:58:06.367Z,68.68
2022-08-26T02:00:35.924Z,67.61
2022-08-26T02:03:18.154Z,66.65
2022-08-26T02:05:48.777Z,66.01
2022-08-26T02:08:24.859Z,65.81
2022-08-26T02:10:55.807Z,64.82
2022-08-26T02:13:27.883Z,64.81
2022-08-26T02:15:56.569Z,64.73
2022-08-26T02:18:26.401Z,64.97
2022-08-26T02:20:57.237Z,64.66
2022-08-26T02:23:26.278Z,64.93
2022-08-26T02:26:01.438Z,64.29
2022-08-26T02:28:33.121Z,64.54
2022-08-26T02:31:01.778Z,64.05
2022-08-26T02:33:31.205Z,63.80
2022-08-26T02:36:00.491Z,63.77
2022-08-26T02:38:29.638Z,63.87
2022-08-26T02:40:59.186Z,63.87
2022-08-26T02:43:31.291Z,64.29
2022-08-26T02:46:02.393Z,63.91
2022-08-26T02:48:31.324Z,64.51
2022-08-26T02:51:01.851Z,64.47
2022-08-26T02:53:31.827Z,64.10
2022-08-26T02:56:05.475Z,64.29
2022-08-26T02:58:35.275Z,65.11
2022-08-26T03:01:04.959Z,65.35
2022-08-26T03:03:34.094Z,65.30
2022-08-26T03:06:02.428Z,64.89
2022-08-26T03:08:30.692Z,65.05
2022-08-26T03:10:59.322Z,64.97
2022-08-26T03:13:31.323Z,65.52
2022-08-26T03:16:02.443Z,65.26
2022-08-26T03:18:30.861Z,64.50
2022-08-26T03:20:59.332Z,63.84
2022-08-26T03:23:28.035Z,63.76
2022-08-26T03:25:56.866Z,63.44
2022-08-26T03:28:27.041Z,63.77
2022-08-26T03:30:57.166Z,63.48
2022-08-26T03:33:26.489Z,63.64
2022-08-26T03:35:55.712Z,63.39
2022-08-26T03:38:26.322Z,63.36
2022-08-26T03:40:55.632Z,62.89
2022-08-26T03:43:26.831Z,62.17
2022-08-26T03:45:56.572Z,61.00
2022-08-26T03:48:25.486Z,59.57
2022-08-26T03:50:53.630Z,58.84
2022-08-26T03:53:21.783Z,57.99
2022-08-26T03:55:51.822Z,56.81
2022-08-26T03:58:20.811Z,56.65
2022-08-26T04:00:50.111Z,55.56
2022-08-26T04:03:40.710Z,55.54
2022-08-26T04:06:09.313Z,54.05
2022-08-26T04:08:37.768Z,53.98
2022-08-26T04:11:07.944Z,52.88
2022-08-26T04:13:38.271Z,52.44
2022-08-26T04:16:06.991Z,51.91
2022-08-26T04:18:38.248Z,51.41
2022-08-26T04:21:15.315Z,51.42
2022-08-26T04:23:47.443Z,51.66
2022-08-26T04:26:16.519Z,51.32
2022-08-26T04:28:44.680Z,50.92
2022-08-26T04:31:14.808Z,51.34
2022-08-26T04:33:45.556Z,50.27
2022-08-26T04:36:15.067Z,50.04
2022-08-26T04:38:43.208Z,49.42
2022-08-26T04:41:15.097Z,49.04
2022-08-26T04:43:46.551Z,50.42
2022-08-26T04:46:18.930Z,50.07
2022-08-26T04:48:48.965Z,49.16
2022-08-26T04:51:17.191Z,47.71
2022-08-26T04:53:46.085Z,46.53
2022-08-26T04:56:15.631Z,46.48
2022-08-26T04:58:43.843Z,47.70
2022-08-26T05:01:12.096Z,49.74
2022-08-26T05:03:41.384Z,47.07
2022-08-26T05:06:12.400Z,47.76
2022-08-26T05:08:41.154Z,46.28
2022-08-26T05:11:10.294Z,47.20
2022-08-26T05:13:39.297Z,45.83
2022-08-26T05:16:11.606Z,43.87
2022-08-26T05:18:40.987Z,43.96
2022-08-26T05:21:20.219Z,41.38
2022-08-26T05:23:51.325Z,41.29
2022-08-26T05:26:23.105Z,39.68
2022-08-26T05:28:54.877Z,39.26
2022-08-26T05:31:34.388Z,40.17
2022-08-26T05:34:04.776Z,38.67
2022-08-26T05:36:37.136Z,40.02
2022-08-26T05:39:07.648Z,39.64
2022-08-26T05:41:41.593Z,38.74
2022-08-26T05:44:11.986Z,41.62
2022-08-26T05:46:41.709Z,40.09
2022-08-26T05:49:12.475Z,40.29
2022-08-26T05:51:46.465Z,40.15
2022-08-26T05:54:21.973Z,39.83
2022-08-26T05:56:50.588Z,39.64
2022-08-26T05:59:24.518Z,39.33
2022-08-26T06:01:54.867Z,38.39
2022-08-26T06:04:26.783Z,38.02
2022-08-26T06:07:00.576Z,39.48
2022-08-26T06:09:28.811Z,38.70
2022-08-26T06:11:58.934Z,36.10
2022-08-26T06:14:27.162Z,33.35
2022-08-26T06:16:55.519Z,31.97
2022-08-26T06:19:24.413Z,31.69
2022-08-26T06:21:54.743Z,30.83
2022-08-26T06:24:41.966Z,30.90
2022-08-26T06:27:15.154Z,30.44
2022-08-26T06:29:43.639Z,29.93
2022-08-26T06:32:11.851Z,31.36
2022-08-26T06:34:40.254Z,30.46
2022-08-26T06:37:09.013Z,28.80
2022-08-26T06:39:41.175Z,30.30
2022-08-26T06:42:11.784Z,30.54
2022-08-26T06:44:41.120Z,31.77
2022-08-26T06:47:09.468Z,32.05
2022-08-26T06:49:38.368Z,32.30
2022-08-26T06:52:08.146Z,32.09
2022-08-26T06:54:37.176Z,32.04
2022-08-26T06:57:08.914Z,31.94
2022-08-26T06:59:37.222Z,32.82
2022-08-26T07:02:06.259Z,32.35
2022-08-26T07:04:36.890Z,32.28
2022-08-26T07:07:05.424Z,33.14
2022-08-26T07:09:35.448Z,31.88
2022-08-26T07:12:06.924Z,32.79
2022-08-26T07:14:37.370Z,31.77
2022-08-26T07:17:07.345Z,33.23
2022-08-26T07:19:38.270Z,33.40
2022-08-26T07:22:08.575Z,33.57
2022-08-26T07:24:40.428Z,33.05
2022-08-26T07:27:12.999Z,33.52
2022-08-26T07:29:43.569Z,34.54
2022-08-26T07:32:13.359Z,35.03
2022-08-26T07:34:42.206Z,35.01
2022-08-26T07:37:10.741Z,36.10
2022-08-26T07:39:40.387Z,35.71
2022-08-26T07:42:10.130Z,35.01
2022-08-26T07:44:39.787Z,35.51
2022-08-26T07:47:25.276Z,37.00
2022-08-26T07:49:55.197Z,36.19
2022-08-26T07:52:26.584Z,36.02
2022-08-26T07:54:55.615Z,36.36
2022-08-26T07:57:24.320Z,36.29
2022-08-26T07:59:54.043Z,35.90
2022-08-26T08:02:26.290Z,36.10
2022-08-26T08:04:54.705Z,35.62
2022-08-26T08:07:25.748Z,37.00
2022-08-26T08:10:11.513Z,36.71
2022-08-26T08:12:40.382Z,36.76
2022-08-26T08:15:11.639Z,37.18
2022-08-26T08:17:43.484Z,36.73
2022-08-26T08:20:13.550Z,36.62
2022-08-26T08:22:42.667Z,36.51
2022-08-26T08:25:12.456Z,36.36
2022-08-26T08:27:42.525Z,36.80
2022-08-26T08:30:13.859Z,36.46
2022-08-26T08:32:44.582Z,36.10
2022-08-26T08:35:14.699Z,36.35
2022-08-26T08:37:44.381Z,36.00
2022-08-26T08:40:18.494Z,36.24
2022-08-26T08:45:26.984Z,37.18
2022-08-26T08:47:58.943Z,37.65
2022-08-26T08:50:31.418Z,38.13
2022-08-26T08:53:13.727Z,38.63
2022-08-26T09:03:31.090Z,38.71
2022-08-26T09:06:02.634Z,39.56
2022-08-26T09:08:35.860Z,38.63
2022-08-26T09:11:05.361Z,39.74
2022-08-26T09:13:35.721Z,39.65
2022-08-26T09:16:08.380Z,39.57
2022-08-26T09:19:02.916Z,39.01
2022-08-26T09:21:32.418Z,38.82
2022-08-26T09:24:01.505Z,38.05
2022-08-26T09:26:31.876Z,38.00
2022-08-26T09:29:02.576Z,37.99
2022-08-26T09:31:33.663Z,38.74
2022-08-26T09:34:17.241Z,38.31
2022-08-26T09:36:49.219Z,39.02
2022-08-26T09:39:30.430Z,38.54
2022-08-26T09:42:09.738Z,39.50
2022-08-26T09:44:56.689Z,39.63
2022-08-26T09:47:28.604Z,40.14
2022-08-26T09:50:09.459Z,40.14
2022-08-26T09:52:40.642Z,40.34
2022-08-26T09:55:15.672Z,40.95
2022-08-26T09:57:51.228Z,41.49
2022-08-26T10:00:29.111Z,41.66
2022-08-26T10:02:58.310Z,42.59
2022-08-26T10:05:41.089Z,43.04
2022-08-26T10:08:22.988Z,43.88
2022-08-26T10:10:53.160Z,43.62
2022-08-26T10:13:27.998Z,42.90
2022-08-26T10:16:05.614Z,43.30
2022-08-26T10:18:37.038Z,44.26
2022-08-26T10:21:12.064Z,43.26
2022-08-26T10:23:43.945Z,42.06
2022-08-26T10:26:17.569Z,41.47
2022-08-26T10:28:54.192Z,41.72
2022-08-26T10:31:28.947Z,43.03
2022-08-26T10:34:00.443Z,43.58
2022-08-26T10:37:14.819Z,44.06
2022-08-26T10:39:55.246Z,43.32
2022-08-26T10:42:35.517Z,43.10
2022-08-26T10:45:15.013Z,42.89
2022-08-26T10:47:50.865Z,41.95
2022-08-26T10:50:21.043Z,42.05
2022-08-26T10:53:03.194Z,42.57
2022-08-26T10:55:37.388Z,43.75
2022-08-26T10:58:26.725Z,43.79
2022-08-26T11:01:23.268Z,44.50
2022-08-26T11:03:58.877Z,43.55
2022-08-26T11:06:29.775Z,44.33
2022-08-26T11:09:02.681Z,46.00
2022-08-26T11:11:51.235Z,44.58
2022-08-26T11:14:41.016Z,45.50
2022-08-26T11:17:58.436Z,45.63
2022-08-26T11:20:41.556Z,44.65
2022-08-26T11:23:41.685Z,45.67
2022-08-26T11:26:35.852Z,45.25
2022-08-26T11:29:12.044Z,45.52
2022-08-26T11:31:56.553Z,46.02
2022-08-26T11:34:52.235Z,45.39
2022-08-26T11:39:57.312Z,43.45
2022-08-26T11:42:36.957Z,43.49
2022-08-26T11:45:18.584Z,44.90
2022-08-26T11:47:49.366Z,44.23
2022-08-26T11:50:21.561Z,43.76
2022-08-26T11:52:54.075Z,45.42
2022-08-26T11:55:23.478Z,47.92
2022-08-26T11:57:57.322Z,49.94
2022-08-26T12:00:33.399Z,50.50
2022-08-26T12:03:07.635Z,51.23
2022-08-26T12:05:43.907Z,51.04
2022-08-26T12:08:17.626Z,52.28
2022-08-26T12:10:46.219Z,51.57
2022-08-26T12:13:23.296Z,51.61
2022-08-26T12:15:55.921Z,51.68
2022-08-26T12:18:29.511Z,51.45
2022-08-26T12:21:01.487Z,51.00
2022-08-26T12:23:41.770Z,50.83
2022-08-26T12:26:20.626Z,50.58
2022-08-26T12:28:53.607Z,49.85
2022-08-26T12:31:25.278Z,48.99
2022-08-26T12:33:54.234Z,48.38
2022-08-26T12:36:28.545Z,48.00
2022-08-26T12:38:58.563Z,51.25
2022-08-26T12:41:43.855Z,52.99
2022-08-26T12:44:54.247Z,53.69
2022-08-26T12:47:32.704Z,55.63
2022-08-26T12:50:18.412Z,56.88
2022-08-26T12:52:57.530Z,55.76
2022-08-26T12:55:36.631Z,56.46
2022-08-26T12:58:15.278Z,55.11
2022-08-26T13:00:46.384Z,51.96
2022-08-26T13:03:32.689Z,43.63
2022-08-26T13:06:17.095Z,37.62
2022-08-26T13:08:48.631Z,36.23
2022-08-26T13:11:20.801Z,36.00
2022-08-26T13:13:51.768Z,35.58
2022-08-26T13:16:22.199Z,35.94
2022-08-26T13:18:52.541Z,36.28
2022-08-26T13:21:22.778Z,36.35
2022-08-26T13:23:51.946Z,36.13
2022-08-26T13:26:20.553Z,36.49
2022-08-26T13:29:01.549Z,36.85
2022-08-26T13:31:34.650Z,36.04
2022-08-26T13:34:03.664Z,35.87
2022-08-26T13:36:32.049Z,36.30
2022-08-26T13:39:00.753Z,36.96
2022-08-26T13:41:29.133Z,36.65
2022-08-26T13:43:58.884Z,36.25
2022-08-26T13:46:28.293Z,36.81
2022-08-26T13:48:58.593Z,36.70
2022-08-26T13:51:28.653Z,37.28
2022-08-26T13:53:57.501Z,36.42
2022-08-26T13:56:27.523Z,36.24
2022-08-26T13:58:56.400Z,35.78
2022-08-26T14:01:25.340Z,36.02
2022-08-26T14:03:53.580Z,35.87
2022-08-26T14:06:23.884Z,35.90
2022-08-26T14:08:52.040Z,36.19
2022-08-26T14:11:20.619Z,35.80
2022-08-26T14:13:48.785Z,35.85
2022-08-26T14:16:23.147Z,35.96
2022-08-26T14:18:51.781Z,35.97
2022-08-26T14:21:20.662Z,35.96
2022-08-26T14:23:50.292Z,35.83
2022-08-26T14:26:28.443Z,36.05
2022-08-26T14:28:59.128Z,36.50
2022-08-26T14:31:29.337Z,36.78
2022-08-26T14:33:59.839Z,37.00
2022-08-26T14:36:32.429Z,37.31
2022-08-26T14:39:05.071Z,37.54
2022-08-26T14:41:34.370Z,37.65
2022-08-26T14:44:05.792Z,37.59
2022-08-26T14:46:43.769Z,37.33
2022-08-26T14:49:12.125Z,37.16
2022-08-26T14:51:41.032Z,36.98
2022-08-26T14:54:14.869Z,37.17
2022-08-26T14:56:47.267Z,37.09
2022-08-26T14:59:17.685Z,36.86
2022-08-26T15:01:46.474Z,36.59
2022-08-26T15:04:14.951Z,36.28
2022-08-26T15:06:43.304Z,36.16
2022-08-26T15:09:13.438Z,35.98
2022-08-26T15:11:41.571Z,36.61
2022-08-26T15:14:14.698Z,36.28
2022-08-26T15:16:48.040Z,36.14
2022-08-26T15:19:16.553Z,36.34
2022-08-26T15:21:45.757Z,36.51
2022-08-26T15:24:17.296Z,36.40
2022-08-26T15:26:46.810Z,36.08
2022-08-26T15:29:15.516Z,36.45
2022-08-26T15:31:43.850Z,36.84
2022-08-26T15:34:16.694Z,36.32
2022-08-26T15:36:46.982Z,36.86
2022-08-26T15:39:18.260Z,36.88
2022-08-26T15:41:46.503Z,37.02
2022-08-26T15:44:17.945Z,37.50
2022-08-26T15:46:46.750Z,37.61
2022-08-26T15:49:17.505Z,37.71
2022-08-26T15:51:50.381Z,37.90
2022-08-26T15:54:22.488Z,38.16
2022-08-26T15:56:52.446Z,38.18
2022-08-26T15:59:22.509Z,38.56
2022-08-26T16:01:50.863Z,38.26
2022-08-26T16:04:19.122Z,38.67
2022-08-26T16:06:50.434Z,38.33
2022-08-26T16:09:21.322Z,38.99
2022-08-26T16:11:50.430Z,39.14
2022-08-26T16:14:18.578Z,39.23
2022-08-26T16:16:47.234Z,39.07
2022-08-26T16:19:15.542Z,38.69
2022-08-26T16:21:44.736Z,38.47
2022-08-26T16:24:13.167Z,38.71
2022-08-26T16:26:45.340Z,38.77
2022-08-26T16:29:15.544Z,38.68
2022-08-26T16:36:35.655Z,39.08
2022-08-26T16:39:03.943Z,39.45
2022-08-26T16:41:32.894Z,39.49
2022-08-26T16:44:02.830Z,42.62
2022-08-26T16:46:31.381Z,46.33
2022-08-26T16:49:03.688Z,61.00
2022-08-26T16:51:38.080Z,66.76
2022-08-26T16:54:08.830Z,72.22
2022-08-26T16:56:37.892Z,75.97
2022-08-26T16:59:11.743Z,79.03
2022-08-26T17:01:40.093Z,80.19
2022-08-26T17:04:08.373Z,80.43
2022-08-26T17:06:36.642Z,79.49
2022-08-26T17:09:05.517Z,79.95
2022-08-26T17:11:34.219Z,79.88
2022-08-26T17:14:02.967Z,79.32
2022-08-26T17:16:33.400Z,79.01
2022-08-26T17:19:01.780Z,78.43
2022-08-26T17:21:30.151Z,78.31
2022-08-26T17:23:58.609Z,77.59
2022-08-26T17:26:27.113Z,77.93
2022-08-26T17:28:56.047Z,78.41
2022-08-26T17:31:25.206Z,78.59
2022-08-26T17:33:55.581Z,77.99
2022-08-26T17:36:27.521Z,78.40
2022-08-26T17:38:57.563Z,78.82
2022-08-26T17:41:26.431Z,79.29
2022-08-26T17:43:55.067Z,78.89
2022-08-26T17:46:23.638Z,78.98
2022-08-26T17:48:51.803Z,79.77
2022-08-26T17:51:23.563Z,80.39
2022-08-26T17:53:52.671Z,81.07
2022-08-26T17:56:24.271Z,81.08
2022-08-26T17:58:53.944Z,82.13
2022-08-26T18:01:26.106Z,82.81
2022-08-26T18:04:00.091Z,83.43
2022-08-26T18:06:31.679Z,83.92
2022-08-26T18:09:00.967Z,83.93
2022-08-26T18:11:29.982Z,84.46
2022-08-26T18:13:58.195Z,84.77
2022-08-26T18:16:26.564Z,84.12
2022-08-26T18:18:55.330Z,83.69
2022-08-26T18:21:25.856Z,83.46
2022-08-26T18:23:56.421Z,83.91
2022-08-26T18:26:27.906Z,83.75
2022-08-26T18:28:57.384Z,83.79
2022-08-26T18:31:26.160Z,84.30
2022-08-26T18:33:54.497Z,85.41
2022-08-26T18:36:25.628Z,85.92
2022-08-26T18:38:56.022Z,86.20
2022-08-26T18:41:27.110Z,86.35
2022-08-26T18:43:56.091Z,85.91
2022-08-26T18:46:26.150Z,85.73
2022-08-26T18:48:54.880Z,85.80
2022-08-26T18:51:25.316Z,86.20
2022-08-26T18:53:54.278Z,87.16
2022-08-26T18:56:24.278Z,87.04
2022-08-26T18:58:52.698Z,87.83
2022-08-26T19:01:25.505Z,87.93
2022-08-26T19:03:55.852Z,87.60
2022-08-26T19:06:25.355Z,87.55
2022-08-26T19:08:53.936Z,86.17
2022-08-26T19:11:32.484Z,85.46
2022-08-26T19:14:07.792Z,85.06
2022-08-26T19:16:37.500Z,84.69
2022-08-26T19:19:07.090Z,84.00
2022-08-26T19:21:37.079Z,82.87
2022-08-26T19:24:09.388Z,82.31
2022-08-26T19:26:39.311Z,82.22
2022-08-26T19:29:07.773Z,81.82
2022-08-26T19:31:36.503Z,82.29
2022-08-26T19:34:05.467Z,82.02
2022-08-26T19:36:34.520Z,82.56
2022-08-26T19:39:07.665Z,82.39
2022-08-26T19:41:40.807Z,82.14
2022-08-26T19:44:13.037Z,83.09
2022-08-26T19:46:41.747Z,83.14
2022-08-26T19:49:09.877Z,82.13
2022-08-26T19:51:38.170Z,81.48
2022-08-26T19:54:06.629Z,80.83
2022-08-26T19:56:36.643Z,80.17
2022-08-26T19:59:06.143Z,80.08
2022-08-26T20:01:34.421Z,79.87
2022-08-26T20:04:03.023Z,79.67
2022-08-26T20:06:31.488Z,79.27
2022-08-26T20:08:59.726Z,78.90
2022-08-26T20:11:28.218Z,79.45
2022-08-26T20:13:57.231Z,78.42
2022-08-26T20:16:26.994Z,78.18
2022-08-26T20:19:12.616Z,78.06
2022-08-26T20:21:42.610Z,79.13
2022-08-26T20:24:13.653Z,77.15
2022-08-26T20:26:43.675Z,75.98
2022-08-26T20:29:13.680Z,75.58
2022-08-26T20:31:44.222Z,75.45
2022-08-26T20:34:13.332Z,76.02
2022-08-26T20:36:44.662Z,76.48
2022-08-26T20:39:13.148Z,76.72
2022-08-26T20:41:41.614Z,76.85
2022-08-26T20:44:10.816Z,76.57
2022-08-26T20:46:39.004Z,76.47
2022-08-26T20:49:09.099Z,76.18
2022-08-26T20:51:38.612Z,76.19
2022-08-26T20:54:08.310Z,76.14
2022-08-26T20:56:37.914Z,76.37
2022-08-26T20:59:07.659Z,76.68
2022-08-26T21:01:42.412Z,77.34
2022-08-26T21:04:15.414Z,77.43
2022-08-26T21:06:47.239Z,77.05
2022-08-26T21:09:21.488Z,77.03
2022-08-26T21:11:49.978Z,76.84
2022-08-26T21:14:19.087Z,77.07
2022-08-26T21:16:48.156Z,77.55
2022-08-26T21:19:19.807Z,77.46
2022-08-26T21:21:49.340Z,77.42
2022-08-26T21:24:18.183Z,77.31
2022-08-26T21:26:49.033Z,77.12
2022-08-26T21:29:17.406Z,77.35
2022-08-26T21:31:46.685Z,78.15
2022-08-26T21:34:15.878Z,77.84
2022-08-26T21:36:46.298Z,78.25
2022-08-26T21:39:14.942Z,78.25
2022-08-26T21:41:44.168Z,79.11
2022-08-26T21:44:13.857Z,78.39
2022-08-26T21:46:44.501Z,77.92
2022-08-26T21:49:15.391Z,77.75
2022-08-26T21:51:47.494Z,77.82
2022-08-26T21:54:15.937Z,77.80
2022-08-26T21:56:47.255Z,77.98
2022-08-26T21:59:17.600Z,77.74
2022-08-26T22:01:46.135Z,77.94
2022-08-26T22:04:14.408Z,77.92
2022-08-26T22:06:44.629Z,78.15
2022-08-26T22:09:15.670Z,77.95
2022-08-26T22:11:44.499Z,77.45
2022-08-26T22:14:13.001Z,77.97
2022-08-26T22:16:41.699Z,78.33
2022-08-26T22:19:20.054Z,78.06
2022-08-26T22:21:50.210Z,78.01
2022-08-26T22:24:21.082Z,77.11
2022-08-26T22:26:50.134Z,77.07
2022-08-26T22:29:18.861Z,76.57
2022-08-26T22:31:47.453Z,77.30
2022-08-26T22:34:17.493Z,76.61
2022-08-26T22:36:49.180Z,76.16
2022-08-26T22:39:21.090Z,75.92
2022-08-26T22:41:49.870Z,75.56
2022-08-26T22:44:19.485Z,75.21
2022-08-26T22:46:48.434Z,74.81
2022-08-26T22:49:17.155Z,74.31
2022-08-26T22:51:45.834Z,73.67
2022-08-26T22:54:14.435Z,73.41
2022-08-26T22:56:44.793Z,72.46
2022-08-26T22:59:13.588Z,72.55
2022-08-26T23:01:44.787Z,72.77
2022-08-26T23:04:13.520Z,73.87
2022-08-26T23:06:47.710Z,73.98
2022-08-26T23:09:18.429Z,74.76
2022-08-26T23:11:49.808Z,74.83
2022-08-26T23:14:19.705Z,74.50
2022-08-26T23:16:49.365Z,74.56
2022-08-26T23:19:21.353Z,72.74
2022-08-26T23:21:50.645Z,71.49
2022-08-26T23:24:19.432Z,71.39
2022-08-26T23:26:49.665Z,70.92
2022-08-26T23:29:17.943Z,71.25
2022-08-26T23:31:46.295Z,71.53
2022-08-26T23:34:32.309Z,71.17
2022-08-26T23:37:01.460Z,71.37
2022-08-26T23:39:30.196Z,71.34
2022-08-26T23:42:01.771Z,71.61
2022-08-26T23:44:30.694Z,72.35
2022-08-26T23:46:59.210Z,72.41
2022-08-26T23:49:28.068Z,73.36
2022-08-26T23:52:13.647Z,72.28
2022-08-26T23:54:41.919Z,71.37
2022-08-26T23:57:11.740Z,70.77
2022-08-26T23:59:40.319Z,70.97
